createdAt,value
2018-09-04T00:01:32.951Z,22.19
2018-09-04T00:04:05.302Z,22.18
2018-09-04T00:06:34.513Z,22.16
2018-09-04T00:09:03.846Z,22.15
2018-09-04T00:11:32.923Z,22.13
2018-09-04T00:14:03.346Z,22.12
2018-09-04T00:16:32.852Z,22.10
2018-09-04T00:19:01.891Z,22.06
2018-09-04T00:21:30.882Z,22.03
2018-09-04T00:24:03.149Z,21.96
2018-09-04T00:26:32.162Z,21.95
2018-09-04T00:29:09.851Z,21.90
2018-09-04T00:31:38.907Z,21.85
2018-09-04T00:34:08.112Z,21.83
2018-09-04T00:36:43.219Z,21.81
2018-09-04T00:39:12.264Z,21.76
2018-09-04T00:41:41.361Z,21.76
2018-09-04T00:44:10.458Z,21.73
2018-09-04T00:46:39.549Z,21.72
2018-09-04T00:49:08.719Z,21.68
2018-09-04T00:51:41.293Z,21.69
2018-09-04T00:54:10.306Z,21.68
2018-09-04T00:56:39.378Z,21.63
2018-09-04T01:01:43.542Z,21.57
2018-09-04T01:04:12.557Z,21.55
2018-09-04T01:06:41.886Z,21.54
2018-09-04T01:09:11.030Z,21.54
2018-09-04T01:11:40.098Z,21.54
2018-09-04T01:14:11.268Z,21.53
2018-09-04T01:16:40.265Z,21.52
2018-09-04T01:19:10.483Z,21.51
2018-09-04T01:21:39.969Z,21.51
2018-09-04T01:24:14.186Z,21.49
2018-09-04T01:26:43.238Z,21.45
2018-09-04T01:29:12.349Z,21.41
2018-09-04T01:31:41.357Z,21.38
2018-09-04T01:36:44.359Z,21.33
2018-09-04T01:39:13.487Z,21.31
2018-09-04T01:41:42.584Z,21.31
2018-09-04T01:44:11.624Z,21.29
2018-09-04T01:46:42.216Z,21.29
2018-09-04T01:49:16.525Z,21.30
2018-09-04T01:54:34.172Z,21.24
2018-09-04T01:57:03.244Z,21.23
2018-09-04T01:59:32.259Z,21.23
2018-09-04T02:02:04.514Z,21.24
2018-09-04T02:04:33.480Z,21.25
2018-09-04T02:07:17.167Z,21.28
2018-09-04T02:09:50.261Z,21.29
2018-09-04T02:12:19.755Z,21.28
2018-09-04T02:14:52.205Z,21.17
2018-09-04T02:17:26.783Z,21.15
2018-09-04T02:19:55.869Z,21.18
2018-09-04T02:22:24.896Z,21.19
2018-09-04T02:24:59.711Z,21.17
2018-09-04T02:27:28.775Z,21.18
2018-09-04T02:29:57.810Z,21.21
2018-09-04T02:32:27.187Z,21.24
2018-09-04T02:34:56.247Z,21.15
2018-09-04T02:37:25.367Z,21.16
2018-09-04T02:39:58.716Z,21.15
2018-09-04T02:42:27.741Z,21.13
2018-09-04T02:44:56.869Z,21.16
2018-09-04T02:47:25.937Z,21.19
2018-09-04T02:49:55.301Z,21.06
2018-09-04T02:52:24.331Z,21.09
2018-09-04T02:54:55.244Z,21.14
2018-09-04T02:57:24.101Z,21.17
2018-09-04T02:59:57.780Z,21.20
2018-09-04T03:02:26.676Z,21.20
2018-09-04T03:04:55.581Z,21.14
2018-09-04T03:07:26.930Z,21.07
2018-09-04T03:09:55.768Z,21.07
2018-09-04T03:12:25.853Z,21.12
2018-09-04T03:14:55.011Z,21.14
2018-09-04T03:17:23.846Z,21.17
2018-09-04T03:19:52.691Z,21.20
2018-09-04T03:23:51.251Z,21.23
2018-09-04T03:26:20.229Z,21.24
2018-09-04T03:28:49.349Z,21.21
2018-09-04T03:31:18.487Z,20.84
2018-09-04T03:33:47.408Z,20.61
2018-09-04T03:36:17.675Z,20.75
2018-09-04T03:38:46.545Z,20.62
2018-09-04T03:41:15.416Z,20.67
2018-09-04T03:43:44.590Z,20.72
2018-09-04T03:46:13.423Z,20.76
2018-09-04T03:48:50.020Z,20.81
2018-09-04T03:51:18.930Z,20.80
2018-09-04T03:53:52.408Z,20.79
2018-09-04T03:56:21.505Z,20.77
2018-09-04T03:58:57.681Z,20.72
2018-09-04T04:01:27.002Z,20.64
2018-09-04T04:03:55.840Z,20.25
2018-09-04T04:06:24.686Z,20.33
2018-09-04T04:08:53.974Z,20.02
2018-09-04T04:11:22.840Z,20.02
2018-09-04T04:13:51.721Z,20.17
2018-09-04T04:16:20.830Z,20.25
2018-09-04T04:18:49.732Z,20.38
2018-09-04T04:21:18.660Z,20.51
2018-09-04T04:23:47.919Z,20.58
2018-09-04T04:26:17.067Z,20.64
2018-09-04T04:28:46.021Z,20.67
2018-09-04T04:31:15.201Z,20.79
2018-09-04T04:33:44.088Z,20.70
2018-09-04T04:36:13.008Z,20.77
2018-09-04T04:38:42.720Z,20.69
2018-09-04T04:41:11.584Z,20.74
2018-09-04T04:43:40.760Z,20.80
2018-09-04T04:46:10.010Z,20.85
2018-09-04T04:48:39.168Z,20.89
2018-09-04T04:51:08.281Z,20.94
2018-09-04T04:53:37.475Z,21.01
2018-09-04T04:56:06.437Z,21.04
2018-09-04T04:58:35.319Z,21.07
2018-09-04T05:01:19.008Z,21.09
2018-09-04T05:03:59.475Z,21.08
2018-09-04T05:06:28.631Z,21.09
2018-09-04T05:08:57.492Z,21.11
2018-09-04T05:11:26.665Z,21.14
2018-09-04T05:13:55.810Z,21.14
2018-09-04T05:16:24.772Z,21.17
2018-09-04T05:21:47.119Z,21.12
2018-09-04T05:24:24.476Z,21.12
2018-09-04T05:26:53.360Z,21.09
2018-09-04T05:29:22.215Z,21.00
2018-09-04T05:36:15.052Z,20.91
2018-09-04T05:38:44.687Z,20.68
2018-09-04T05:41:13.565Z,20.67
2018-09-04T05:43:52.915Z,20.62
2018-09-04T05:46:53.379Z,20.62
2018-09-04T05:49:36.933Z,20.63
2018-09-04T05:52:05.821Z,20.62
2018-09-04T05:54:34.822Z,20.63
2018-09-04T05:57:03.736Z,20.62
2018-09-04T05:59:32.607Z,20.65
2018-09-04T06:02:03.441Z,20.61
2018-09-04T06:04:37.197Z,20.52
2018-09-04T06:07:06.095Z,20.44
2018-09-04T06:09:40.821Z,20.34
2018-09-04T06:12:09.734Z,20.30
2018-09-04T06:14:38.645Z,20.40
2018-09-04T06:17:08.080Z,20.47
2018-09-04T06:19:43.392Z,20.49
2018-09-04T06:22:12.319Z,20.54
2018-09-04T06:24:46.820Z,20.51
2018-09-04T06:27:15.769Z,20.58
2018-09-04T06:29:45.046Z,20.62
2018-09-04T06:32:13.926Z,20.61
2018-09-04T06:34:42.912Z,20.63
2018-09-04T06:37:17.256Z,20.66
2018-09-04T06:39:48.249Z,20.72
2018-09-04T06:42:19.612Z,20.64
2018-09-04T06:47:29.042Z,20.63
2018-09-04T06:49:58.293Z,20.64
2018-09-04T06:52:27.574Z,20.65
2018-09-04T06:55:10.594Z,20.64
2018-09-04T07:00:28.047Z,20.50
2018-09-04T07:02:57.363Z,20.56
2018-09-04T07:05:26.294Z,20.54
2018-09-04T07:07:55.286Z,20.54
2018-09-04T07:10:24.593Z,20.50
2018-09-04T07:12:53.558Z,20.52
2018-09-04T07:15:28.672Z,20.49
2018-09-04T07:17:58.082Z,20.44
2018-09-04T07:20:27.677Z,20.44
2018-09-04T07:22:56.899Z,20.47
2018-09-04T07:25:26.281Z,20.52
2018-09-04T07:27:56.115Z,20.56
2018-09-04T07:30:25.391Z,20.47
2018-09-04T07:32:54.822Z,20.50
2018-09-04T07:35:24.155Z,20.55
2018-09-04T07:37:53.299Z,20.56
2018-09-04T07:40:22.903Z,20.24
2018-09-04T07:42:52.752Z,20.08
2018-09-04T07:45:21.901Z,19.97
2018-09-04T07:47:51.251Z,19.99
2018-09-04T07:50:20.219Z,20.15
2018-09-04T07:52:49.352Z,20.29
2018-09-04T07:55:19.065Z,20.39
2018-09-04T07:57:48.014Z,20.50
2018-09-04T08:00:17.188Z,20.57
2018-09-04T08:02:46.540Z,20.66
2018-09-04T08:05:15.630Z,20.57
2018-09-04T08:07:44.892Z,20.52
2018-09-04T08:10:14.399Z,20.78
2018-09-04T08:12:43.394Z,20.94
2018-09-04T08:15:12.634Z,21.12
2018-09-04T08:17:41.989Z,21.34
2018-09-04T08:20:11.047Z,21.56
2018-09-04T08:22:40.297Z,21.80
2018-09-04T08:25:09.800Z,22.04
2018-09-04T08:27:38.799Z,22.22
2018-09-04T08:30:07.877Z,22.41
2018-09-04T08:32:37.118Z,22.54
2018-09-04T08:35:06.157Z,22.56
2018-09-04T08:37:35.222Z,22.74
2018-09-04T08:40:05.404Z,22.69
2018-09-04T08:42:35.028Z,21.73
2018-09-04T08:45:04.232Z,22.13
2018-09-04T08:47:33.644Z,22.34
2018-09-04T08:50:04.445Z,22.51
2018-09-04T08:52:33.462Z,22.59
2018-09-04T08:55:03.030Z,22.69
2018-09-04T08:57:32.144Z,22.90
2018-09-04T09:00:01.102Z,22.29
2018-09-04T09:02:30.715Z,22.44
2018-09-04T09:05:16.806Z,22.81
2018-09-04T09:08:16.689Z,23.01
2018-09-04T09:10:45.946Z,22.98
2018-09-04T09:13:15.295Z,23.09
2018-09-04T09:15:50.584Z,23.24
2018-09-04T09:18:20.141Z,23.50
2018-09-04T09:20:49.551Z,23.66
2018-09-04T09:23:18.573Z,23.94
2018-09-04T09:25:47.568Z,24.09
2018-09-04T09:28:17.599Z,24.30
2018-09-04T09:30:46.759Z,24.43
2018-09-04T09:33:18.762Z,24.58
2018-09-04T09:35:48.193Z,24.38
2018-09-04T09:38:17.258Z,24.50
2018-09-04T09:40:46.256Z,24.71
2018-09-04T09:43:15.629Z,24.77
2018-09-04T09:45:44.716Z,24.89
2018-09-04T09:48:13.966Z,25.05
2018-09-04T09:50:43.376Z,25.06
2018-09-04T09:53:12.808Z,25.07
2018-09-04T09:55:41.776Z,25.11
2018-09-04T09:58:11.233Z,25.06
2018-09-04T10:00:45.355Z,24.33
2018-09-04T10:05:55.576Z,24.22
2018-09-04T10:08:24.752Z,24.01
2018-09-04T10:10:53.827Z,23.99
2018-09-04T10:13:23.151Z,23.99
2018-09-04T10:15:52.909Z,24.32
2018-09-04T10:18:23.244Z,24.07
2018-09-04T10:20:52.756Z,24.39
2018-09-04T10:23:22.029Z,24.85
2018-09-04T10:25:51.361Z,25.19
2018-09-04T10:28:20.710Z,25.61
2018-09-04T10:30:49.942Z,25.99
2018-09-04T10:33:25.459Z,26.25
2018-09-04T10:35:55.194Z,26.53
2018-09-04T10:38:26.940Z,26.93
2018-09-04T10:41:00.583Z,27.19
2018-09-04T10:43:31.561Z,27.38
2018-09-04T10:46:04.412Z,27.61
2018-09-04T10:48:33.887Z,27.88
2018-09-04T10:51:03.349Z,27.95
2018-09-04T10:53:32.818Z,27.40
2018-09-04T10:56:02.947Z,27.92
2018-09-04T10:58:31.927Z,28.35
2018-09-04T11:01:00.840Z,28.65
2018-09-04T11:03:30.233Z,28.92
2018-09-04T11:05:59.364Z,29.03
2018-09-04T11:08:28.408Z,29.23
2018-09-04T11:10:57.805Z,29.40
2018-09-04T11:13:26.836Z,29.51
2018-09-04T11:15:56.282Z,29.49
2018-09-04T11:18:25.633Z,28.80
2018-09-04T11:20:54.617Z,29.00
2018-09-04T11:23:23.586Z,29.27
2018-09-04T11:25:52.791Z,29.48
2018-09-04T11:28:21.773Z,29.51
2018-09-04T11:30:50.875Z,29.84
2018-09-04T11:33:26.592Z,30.22
2018-09-04T11:35:55.600Z,30.56
2018-09-04T11:38:25.444Z,30.75
2018-09-04T11:40:54.787Z,30.63
2018-09-04T11:43:23.771Z,30.91
2018-09-04T11:45:52.830Z,31.14
2018-09-04T11:48:22.271Z,31.19
2018-09-04T11:50:51.201Z,31.03
2018-09-04T11:53:20.347Z,30.93
2018-09-04T11:55:49.663Z,30.67
2018-09-04T11:58:18.829Z,30.68
2018-09-04T12:00:49.021Z,30.88
2018-09-04T12:03:18.560Z,30.66
2018-09-04T12:05:47.568Z,30.71
2018-09-04T12:08:20.176Z,31.23
2018-09-04T12:10:49.642Z,31.71
2018-09-04T12:13:23.554Z,32.14
2018-09-04T12:15:52.731Z,32.54
2018-09-04T12:18:22.244Z,32.59
2018-09-04T12:20:53.559Z,32.41
2018-09-04T12:23:22.937Z,32.36
2018-09-04T12:25:58.306Z,32.60
2018-09-04T12:28:27.409Z,32.69
2018-09-04T12:30:56.997Z,32.70
2018-09-04T12:33:26.634Z,33.02
2018-09-04T12:35:55.781Z,32.76
2018-09-04T12:38:34.433Z,32.33
2018-09-04T12:41:06.696Z,31.93
2018-09-04T12:43:37.888Z,32.18
2018-09-04T12:46:07.365Z,32.65
2018-09-04T12:48:36.501Z,32.74
2018-09-04T12:51:06.095Z,33.13
2018-09-04T12:53:35.490Z,33.62
2018-09-04T12:56:05.508Z,33.98
2018-09-04T12:58:34.877Z,34.06
2018-09-04T13:01:03.993Z,34.53
2018-09-04T13:03:33.329Z,35.05
2018-09-04T13:06:04.453Z,35.30
2018-09-04T13:08:34.634Z,34.74
2018-09-04T13:11:03.666Z,33.98
2018-09-04T13:13:33.539Z,33.92
2018-09-04T13:16:03.321Z,34.43
2018-09-04T13:18:33.484Z,35.21
2018-09-04T13:21:03.936Z,35.60
2018-09-04T13:23:34.695Z,36.12
2018-09-04T13:26:05.539Z,36.64
2018-09-04T13:28:35.360Z,36.90
2018-09-04T13:31:04.451Z,37.17
2018-09-04T13:33:34.032Z,37.44
2018-09-04T13:36:05.792Z,37.68
2018-09-04T13:38:34.889Z,37.87
2018-09-04T13:41:08.913Z,38.02
2018-09-04T13:43:40.361Z,38.46
2018-09-04T13:46:09.714Z,38.74
2018-09-04T13:48:40.369Z,38.62
2018-09-04T13:51:09.981Z,37.98
2018-09-04T13:53:39.274Z,38.19
2018-09-04T13:56:08.311Z,38.47
2018-09-04T13:58:39.333Z,38.24
2018-09-04T14:01:09.300Z,38.21
2018-09-04T14:03:38.699Z,37.69
2018-09-04T14:06:07.936Z,37.64
2018-09-04T14:08:37.522Z,37.74
2018-09-04T14:11:06.943Z,37.99
2018-09-04T14:13:36.198Z,38.27
2018-09-04T14:16:18.739Z,38.40
2018-09-04T14:18:47.951Z,38.36
2018-09-04T14:21:17.584Z,38.81
2018-09-04T14:23:46.735Z,38.34
2018-09-04T14:26:35.923Z,37.90
2018-09-04T14:29:07.050Z,37.96
2018-09-04T14:31:34.942Z,38.18
2018-09-04T14:34:05.761Z,38.46
2018-09-04T14:36:35.193Z,38.85
2018-09-04T14:39:10.540Z,39.11
2018-09-04T14:41:39.759Z,39.18
2018-09-04T14:44:08.831Z,39.14
2018-09-04T14:46:37.898Z,39.19
2018-09-04T14:49:07.522Z,38.94
2018-09-04T14:51:36.641Z,38.28
2018-09-04T14:54:06.898Z,37.75
2018-09-04T14:56:36.212Z,37.46
2018-09-04T14:59:05.582Z,37.63
2018-09-04T15:01:34.737Z,37.90
2018-09-04T15:04:06.263Z,38.16
2018-09-04T15:06:35.538Z,38.14
2018-09-04T15:09:05.594Z,37.57
2018-09-04T15:14:41.577Z,36.24
2018-09-04T15:17:17.192Z,36.09
2018-09-04T15:22:40.999Z,36.14
2018-09-04T15:25:10.136Z,35.46
2018-09-04T15:27:39.720Z,34.65
2018-09-04T15:30:09.410Z,34.04
2018-09-04T15:32:38.507Z,33.48
2018-09-04T15:35:07.691Z,32.78
2018-09-04T15:37:37.068Z,32.31
2018-09-04T15:40:06.906Z,31.94
2018-09-04T15:42:36.527Z,31.68
2018-09-04T15:45:06.134Z,31.42
2018-09-04T15:47:35.122Z,31.18
2018-09-04T15:50:05.687Z,30.85
2018-09-04T15:52:34.950Z,30.75
2018-09-04T15:55:04.067Z,30.64
2018-09-04T15:57:33.255Z,30.47
2018-09-04T16:00:03.896Z,30.29
2018-09-04T16:02:33.151Z,30.22
2018-09-04T16:05:02.785Z,30.09
2018-09-04T16:07:32.489Z,29.88
2018-09-04T16:10:03.616Z,29.81
2018-09-04T16:12:32.926Z,29.69
2018-09-04T16:15:02.439Z,29.60
2018-09-04T16:17:33.620Z,29.50
2018-09-04T16:20:04.714Z,29.46
2018-09-04T16:22:34.067Z,29.40
2018-09-04T16:25:04.097Z,29.35
2018-09-04T16:27:33.718Z,29.30
2018-09-04T16:30:05.065Z,29.25
2018-09-04T16:32:34.158Z,29.18
2018-09-04T16:35:03.189Z,29.16
2018-09-04T16:37:32.789Z,29.12
2018-09-04T16:40:05.485Z,29.11
2018-09-04T16:42:34.686Z,29.10
2018-09-04T16:45:04.025Z,29.10
2018-09-04T16:47:33.061Z,29.09
2018-09-04T16:50:04.229Z,29.09
2018-09-04T16:52:33.901Z,29.06
2018-09-04T16:55:02.900Z,29.04
2018-09-04T16:57:50.032Z,29.06
2018-09-04T17:00:35.467Z,29.06
2018-09-04T17:03:04.861Z,29.05
2018-09-04T17:08:42.937Z,29.04
2018-09-04T17:11:12.064Z,29.00
2018-09-04T17:13:41.255Z,28.96
2018-09-04T17:16:10.222Z,28.95
2018-09-04T17:18:39.419Z,28.90
2018-09-04T17:21:09.372Z,28.91
2018-09-04T17:23:38.261Z,28.86
2018-09-04T17:26:07.527Z,28.84
2018-09-04T17:28:36.404Z,28.81
2018-09-04T17:31:05.369Z,28.78
2018-09-04T17:33:34.537Z,28.71
2018-09-04T17:36:04.041Z,28.64
2018-09-04T17:38:34.827Z,28.60
2018-09-04T17:41:04.046Z,28.58
2018-09-04T17:43:33.131Z,28.54
2018-09-04T17:46:04.842Z,28.52
2018-09-04T17:48:34.077Z,28.51
2018-09-04T17:51:02.968Z,28.50
2018-09-04T17:53:32.428Z,28.50
2018-09-04T17:56:12.604Z,28.45
2018-09-04T17:58:41.467Z,28.44
2018-09-04T18:01:18.909Z,28.41
2018-09-04T18:03:47.873Z,28.36
2018-09-04T18:06:17.159Z,28.31
2018-09-04T18:08:46.460Z,28.27
2018-09-04T18:11:15.838Z,28.23
2018-09-04T18:13:44.744Z,28.17
2018-09-04T18:16:13.943Z,28.13
2018-09-04T18:18:43.130Z,28.08
2018-09-04T18:21:12.237Z,28.05
2018-09-04T18:23:55.958Z,28.02
2018-09-04T18:26:31.074Z,27.99
2018-09-04T18:29:00.486Z,27.96
2018-09-04T18:31:29.427Z,27.94
2018-09-04T18:33:58.300Z,27.90
2018-09-04T18:36:29.015Z,27.85
2018-09-04T18:38:58.042Z,27.82
2018-09-04T18:41:26.950Z,27.81
2018-09-04T18:43:56.117Z,27.80
2018-09-04T18:46:26.581Z,27.77
2018-09-04T18:48:56.488Z,27.74
2018-09-04T18:51:29.084Z,27.70
2018-09-04T18:53:58.241Z,27.68
2018-09-04T18:56:27.352Z,27.63
2018-09-04T18:58:56.556Z,27.60
2018-09-04T19:01:31.014Z,27.59
2018-09-04T19:03:59.885Z,27.57
2018-09-04T19:06:32.067Z,27.56
2018-09-04T19:09:01.749Z,27.55
2018-09-04T19:11:31.743Z,27.54
2018-09-04T19:14:09.898Z,27.54
2018-09-04T19:16:38.809Z,27.53
2018-09-04T19:19:17.019Z,27.50
2018-09-04T19:21:45.911Z,27.47
2018-09-04T19:24:15.836Z,27.44
2018-09-04T19:26:44.735Z,27.40
2018-09-04T19:29:14.265Z,27.38
2018-09-04T19:31:46.090Z,27.34
2018-09-04T19:34:15.078Z,27.30
2018-09-04T19:36:44.391Z,27.28
2018-09-04T19:39:13.509Z,27.24
2018-09-04T19:41:42.504Z,27.24
2018-09-04T19:44:12.049Z,27.20
2018-09-04T19:46:41.273Z,27.19
2018-09-04T19:54:38.818Z,27.07
2018-09-04T19:57:08.055Z,27.02
2018-09-04T19:59:37.520Z,26.99
2018-09-04T20:02:07.083Z,26.93
2018-09-04T20:04:36.420Z,26.92
2018-09-04T20:07:21.158Z,26.86
2018-09-04T20:09:52.435Z,26.84
2018-09-04T20:12:22.083Z,26.82
2018-09-04T20:14:51.487Z,26.77
2018-09-04T20:17:21.145Z,26.75
2018-09-04T20:19:50.266Z,26.72
2018-09-04T20:22:20.056Z,26.67
2018-09-04T20:24:54.807Z,26.64
2018-09-04T20:30:20.556Z,26.62
2018-09-04T20:32:51.479Z,26.59
2018-09-04T20:35:20.692Z,26.56
2018-09-04T20:37:49.784Z,26.58
2018-09-04T20:40:18.995Z,26.58
2018-09-04T20:42:48.303Z,26.57
2018-09-04T20:45:17.280Z,26.56
2018-09-04T20:47:51.320Z,26.55
2018-09-04T20:50:20.777Z,26.53
2018-09-04T20:52:49.717Z,26.53
2018-09-04T20:55:18.622Z,26.50
2018-09-04T20:57:58.619Z,26.49
2018-09-04T21:00:38.284Z,26.47
2018-09-04T21:03:21.474Z,26.46
2018-09-04T21:06:03.763Z,26.42
2018-09-04T21:08:51.333Z,26.41
2018-09-04T21:11:20.425Z,26.40
2018-09-04T21:13:51.139Z,26.37
2018-09-04T21:16:20.096Z,26.37
2018-09-04T21:18:49.192Z,26.36
2018-09-04T21:21:18.438Z,26.34
2018-09-04T21:23:47.370Z,26.31
2018-09-04T21:26:16.344Z,26.25
2018-09-04T21:28:45.610Z,26.24
2018-09-04T21:31:14.473Z,26.21
2018-09-04T21:33:43.607Z,26.18
2018-09-04T21:36:15.686Z,26.18
2018-09-04T21:38:44.655Z,26.16
2018-09-04T21:41:17.457Z,26.14
2018-09-04T21:43:46.308Z,26.13
2018-09-04T21:46:15.522Z,26.11
2018-09-04T21:48:44.668Z,26.07
2018-09-04T21:51:13.573Z,26.03
2018-09-04T21:53:42.420Z,25.99
2018-09-04T21:56:11.559Z,25.97
2018-09-04T21:58:40.528Z,25.93
2018-09-04T22:01:09.522Z,25.89
2018-09-04T22:03:39.764Z,25.86
2018-09-04T22:06:08.744Z,25.83
2018-09-04T22:08:37.702Z,25.79
2018-09-04T22:11:06.859Z,25.78
2018-09-04T22:13:35.701Z,25.76
2018-09-04T22:16:05.500Z,25.73
2018-09-04T22:18:34.809Z,25.72
2018-09-04T22:21:05.523Z,25.68
2018-09-04T22:23:35.082Z,25.63
2018-09-04T22:26:05.611Z,25.60
2018-09-04T22:28:35.794Z,25.56
2018-09-04T22:31:05.077Z,25.53
2018-09-04T22:33:41.358Z,25.50
2018-09-04T22:36:10.302Z,25.46
2018-09-04T22:38:39.188Z,25.42
2018-09-04T22:41:09.970Z,25.39
2018-09-04T22:43:38.890Z,25.35
2018-09-04T22:46:08.307Z,25.33
2018-09-04T22:48:37.183Z,25.31
2018-09-04T22:51:11.201Z,25.31
2018-09-04T22:53:51.016Z,25.28
2018-09-04T22:56:20.596Z,25.26
2018-09-04T22:58:50.876Z,25.24
2018-09-04T23:01:22.084Z,25.21
2018-09-04T23:03:50.988Z,25.14
2018-09-04T23:06:20.424Z,25.11
2018-09-04T23:08:49.905Z,25.09
2018-09-04T23:11:18.782Z,25.04
2018-09-04T23:13:54.555Z,25.02
2018-09-04T23:16:23.463Z,24.97
2018-09-04T23:18:52.576Z,24.92
2018-09-04T23:21:21.748Z,24.91
2018-09-04T23:23:50.612Z,24.87
2018-09-04T23:26:29.117Z,24.84
2018-09-04T23:28:57.951Z,24.80
2018-09-04T23:31:26.915Z,24.75
2018-09-04T23:33:56.147Z,24.72
2018-09-04T23:36:30.981Z,24.70
2018-09-04T23:38:59.901Z,24.67
2018-09-04T23:41:32.159Z,24.61
2018-09-04T23:44:01.055Z,24.57
2018-09-04T23:46:31.791Z,24.55
2018-09-04T23:49:07.849Z,24.52
2018-09-04T23:51:36.928Z,24.47
2018-09-04T23:54:13.146Z,24.43
2018-09-04T23:56:42.291Z,24.38
2018-09-04T23:59:11.159Z,24.33
